sensor_id;sensor_type;location;lat;lon;timestamp;P1;durP1;ratioP1;P2;durP2;ratioP2
50549;SDS011;36505;52.512;13.460;2022-08-23T00:00:43;8.30;;;2.83;;
50549;SDS011;36505;52.512;13.460;2022-08-23T00:03:08;9.68;;;3.22;;
50549;SDS011;36505;52.512;13.460;2022-08-23T00:05:34;9.50;;;2.53;;
50549;SDS011;36505;52.512;13.460;2022-08-23T00:07:59;7.85;;;2.92;;
50549;SDS011;36505;52.512;13.460;2022-08-23T00:10:25;7.53;;;2.90;;
50549;SDS011;36505;52.512;13.460;2022-08-23T00:12:50;7.85;;;2.38;;
50549;SDS011;36505;52.512;13.460;2022-08-23T00:15:16;6.65;;;2.67;;
50549;SDS011;36505;52.512;13.460;2022-08-23T00:17:44;6.32;;;2.55;;
50549;SDS011;36505;52.512;13.460;2022-08-23T00:20:12;7.90;;;2.90;;
50549;SDS011;36505;52.512;13.460;2022-08-23T00:22:39;6.18;;;2.95;;
50549;SDS011;36505;52.512;13.460;2022-08-23T00:25:06;7.80;;;2.80;;
50549;SDS011;36505;52.512;13.460;2022-08-23T00:27:33;5.25;;;2.70;;
50549;SDS011;36505;52.512;13.460;2022-08-23T00:29:59;7.07;;;3.05;;
50549;SDS011;36505;52.512;13.460;2022-08-23T00:32:29;5.95;;;3.28;;
50549;SDS011;36505;52.512;13.460;2022-08-23T00:34:56;8.15;;;3.45;;
50549;SDS011;36505;52.512;13.460;2022-08-23T00:37:23;8.10;;;2.97;;
50549;SDS011;36505;52.512;13.460;2022-08-23T00:39:50;7.15;;;3.85;;
50549;SDS011;36505;52.512;13.460;2022-08-23T00:42:28;7.35;;;3.88;;
50549;SDS011;36505;52.512;13.460;2022-08-23T00:45:30;7.88;;;3.05;;
50549;SDS011;36505;52.512;13.460;2022-08-23T00:48:19;6.18;;;3.30;;
50549;SDS011;36505;52.512;13.460;2022-08-23T00:50:53;6.28;;;3.00;;
50549;SDS011;36505;52.512;13.460;2022-08-23T00:53:28;8.77;;;3.13;;
50549;SDS011;36505;52.512;13.460;2022-08-23T00:56:02;7.20;;;3.28;;
50549;SDS011;36505;52.512;13.460;2022-08-23T00:58:30;6.38;;;3.08;;
50549;SDS011;36505;52.512;13.460;2022-08-23T01:00:57;6.63;;;2.70;;
50549;SDS011;36505;52.512;13.460;2022-08-23T01:03:25;7.35;;;3.35;;
50549;SDS011;36505;52.512;13.460;2022-08-23T01:06:12;6.22;;;3.38;;
50549;SDS011;36505;52.512;13.460;2022-08-23T01:08:47;8.50;;;2.85;;
50549;SDS011;36505;52.512;13.460;2022-08-23T01:11:27;10.13;;;3.67;;
50549;SDS011;36505;52.512;13.460;2022-08-23T01:14:10;11.55;;;3.55;;
50549;SDS011;36505;52.512;13.460;2022-08-23T01:16:45;9.02;;;3.50;;
50549;SDS011;36505;52.512;13.460;2022-08-23T01:19:27;8.55;;;2.55;;
50549;SDS011;36505;52.512;13.460;2022-08-23T01:21:59;8.73;;;2.70;;
50549;SDS011;36505;52.512;13.460;2022-08-23T01:24:33;7.60;;;3.13;;
50549;SDS011;36505;52.512;13.460;2022-08-23T01:26:59;6.75;;;2.95;;
50549;SDS011;36505;52.512;13.460;2022-08-23T01:29:25;5.75;;;2.75;;
50549;SDS011;36505;52.512;13.460;2022-08-23T01:31:50;7.53;;;2.90;;
50549;SDS011;36505;52.512;13.460;2022-08-23T01:34:17;6.70;;;2.67;;
50549;SDS011;36505;52.512;13.460;2022-08-23T01:36:43;4.50;;;2.40;;
50549;SDS011;36505;52.512;13.460;2022-08-23T01:39:10;6.28;;;2.55;;
50549;SDS011;36505;52.512;13.460;2022-08-23T01:41:35;4.85;;;2.55;;
50549;SDS011;36505;52.512;13.460;2022-08-23T01:44:03;6.55;;;2.60;;
50549;SDS011;36505;52.512;13.460;2022-08-23T01:46:29;8.63;;;2.78;;
50549;SDS011;36505;52.512;13.460;2022-08-23T01:48:55;7.82;;;2.55;;
50549;SDS011;36505;52.512;13.460;2022-08-23T01:51:22;8.63;;;2.75;;
50549;SDS011;36505;52.512;13.460;2022-08-23T01:53:48;6.45;;;2.72;;
50549;SDS011;36505;52.512;13.460;2022-08-23T01:56:14;5.95;;;2.83;;
50549;SDS011;36505;52.512;13.460;2022-08-23T01:58:43;5.63;;;2.83;;
50549;SDS011;36505;52.512;13.460;2022-08-23T02:01:09;4.57;;;2.50;;
50549;SDS011;36505;52.512;13.460;2022-08-23T02:03:35;7.07;;;2.92;;
50549;SDS011;36505;52.512;13.460;2022-08-23T02:06:01;7.63;;;2.35;;
50549;SDS011;36505;52.512;13.460;2022-08-23T02:08:27;13.77;;;2.90;;
50549;SDS011;36505;52.512;13.460;2022-08-23T02:11:15;7.80;;;2.78;;
50549;SDS011;36505;52.512;13.460;2022-08-23T02:13:43;6.57;;;2.53;;
50549;SDS011;36505;52.512;13.460;2022-08-23T02:16:09;7.95;;;2.28;;
50549;SDS011;36505;52.512;13.460;2022-08-23T02:18:36;4.38;;;2.78;;
50549;SDS011;36505;52.512;13.460;2022-08-23T02:21:02;9.68;;;2.50;;
50549;SDS011;36505;52.512;13.460;2022-08-23T02:23:28;2.85;;;2.05;;
50549;SDS011;36505;52.512;13.460;2022-08-23T02:25:53;12.57;;;2.70;;
50549;SDS011;36505;52.512;13.460;2022-08-23T02:28:20;4.90;;;2.03;;
50549;SDS011;36505;52.512;13.460;2022-08-23T02:30:47;5.43;;;2.53;;
50549;SDS011;36505;52.512;13.460;2022-08-23T02:33:14;7.75;;;2.50;;
50549;SDS011;36505;52.512;13.460;2022-08-23T02:35:39;5.30;;;2.45;;
50549;SDS011;36505;52.512;13.460;2022-08-23T02:38:06;6.18;;;2.67;;
50549;SDS011;36505;52.512;13.460;2022-08-23T02:40:35;7.80;;;2.80;;
50549;SDS011;36505;52.512;13.460;2022-08-23T02:43:01;5.97;;;2.20;;
50549;SDS011;36505;52.512;13.460;2022-08-23T02:45:27;8.93;;;2.60;;
50549;SDS011;36505;52.512;13.460;2022-08-23T02:47:54;6.90;;;2.50;;
50549;SDS011;36505;52.512;13.460;2022-08-23T02:50:20;4.55;;;2.40;;
50549;SDS011;36505;52.512;13.460;2022-08-23T02:52:46;6.90;;;3.58;;
50549;SDS011;36505;52.512;13.460;2022-08-23T02:55:11;6.72;;;2.97;;
50549;SDS011;36505;52.512;13.460;2022-08-23T02:57:37;9.95;;;3.45;;
50549;SDS011;36505;52.512;13.460;2022-08-23T03:00:04;8.52;;;3.35;;
50549;SDS011;36505;52.512;13.460;2022-08-23T03:02:32;6.95;;;2.42;;
50549;SDS011;36505;52.512;13.460;2022-08-23T03:04:57;6.13;;;2.78;;
50549;SDS011;36505;52.512;13.460;2022-08-23T03:07:23;6.47;;;2.95;;
50549;SDS011;36505;52.512;13.460;2022-08-23T03:09:48;8.23;;;3.08;;
50549;SDS011;36505;52.512;13.460;2022-08-23T03:12:14;5.78;;;3.08;;
50549;SDS011;36505;52.512;13.460;2022-08-23T03:14:39;6.60;;;3.13;;
50549;SDS011;36505;52.512;13.460;2022-08-23T03:17:05;5.00;;;2.50;;
50549;SDS011;36505;52.512;13.460;2022-08-23T03:19:31;6.05;;;2.75;;
50549;SDS011;36505;52.512;13.460;2022-08-23T03:21:57;6.28;;;2.70;;
50549;SDS011;36505;52.512;13.460;2022-08-23T03:24:22;10.02;;;3.28;;
50549;SDS011;36505;52.512;13.460;2022-08-23T03:26:48;9.82;;;3.42;;
50549;SDS011;36505;52.512;13.460;2022-08-23T03:29:13;11.07;;;3.40;;
50549;SDS011;36505;52.512;13.460;2022-08-23T03:31:39;6.65;;;2.92;;
50549;SDS011;36505;52.512;13.460;2022-08-23T03:34:05;7.25;;;3.08;;
50549;SDS011;36505;52.512;13.460;2022-08-23T03:36:31;5.80;;;2.97;;
50549;SDS011;36505;52.512;13.460;2022-08-23T03:38:56;7.57;;;3.15;;
50549;SDS011;36505;52.512;13.460;2022-08-23T03:41:22;6.90;;;3.30;;
50549;SDS011;36505;52.512;13.460;2022-08-23T03:43:49;6.00;;;3.15;;
50549;SDS011;36505;52.512;13.460;2022-08-23T03:46:14;6.18;;;3.08;;
50549;SDS011;36505;52.512;13.460;2022-08-23T03:48:54;6.90;;;3.30;;
50549;SDS011;36505;52.512;13.460;2022-08-23T03:51:22;4.65;;;3.10;;
50549;SDS011;36505;52.512;13.460;2022-08-23T03:53:48;9.40;;;3.38;;
50549;SDS011;36505;52.512;13.460;2022-08-23T03:56:24;8.80;;;3.72;;
50549;SDS011;36505;52.512;13.460;2022-08-23T03:58:51;9.63;;;4.55;;
50549;SDS011;36505;52.512;13.460;2022-08-23T04:01:18;6.38;;;3.00;;
50549;SDS011;36505;52.512;13.460;2022-08-23T04:03:43;14.90;;;5.40;;
50549;SDS011;36505;52.512;13.460;2022-08-23T04:06:09;6.93;;;3.25;;
50549;SDS011;36505;52.512;13.460;2022-08-23T04:08:35;6.55;;;2.83;;
50549;SDS011;36505;52.512;13.460;2022-08-23T04:11:01;7.13;;;3.60;;
50549;SDS011;36505;52.512;13.460;2022-08-23T04:13:26;9.43;;;3.90;;
50549;SDS011;36505;52.512;13.460;2022-08-23T04:15:53;8.80;;;3.40;;
50549;SDS011;36505;52.512;13.460;2022-08-23T04:18:19;12.02;;;4.22;;
50549;SDS011;36505;52.512;13.460;2022-08-23T04:20:45;7.93;;;3.53;;
50549;SDS011;36505;52.512;13.460;2022-08-23T04:23:11;7.57;;;3.92;;
50549;SDS011;36505;52.512;13.460;2022-08-23T04:25:36;7.88;;;3.90;;
50549;SDS011;36505;52.512;13.460;2022-08-23T04:28:03;11.20;;;4.63;;
50549;SDS011;36505;52.512;13.460;2022-08-23T04:30:29;9.85;;;3.67;;
50549;SDS011;36505;52.512;13.460;2022-08-23T04:32:55;7.03;;;3.78;;
50549;SDS011;36505;52.512;13.460;2022-08-23T04:35:20;8.18;;;3.50;;
50549;SDS011;36505;52.512;13.460;2022-08-23T04:37:46;10.40;;;3.97;;
50549;SDS011;36505;52.512;13.460;2022-08-23T04:40:11;11.05;;;3.72;;
50549;SDS011;36505;52.512;13.460;2022-08-23T04:42:55;4.60;;;2.85;;
50549;SDS011;36505;52.512;13.460;2022-08-23T04:45:21;7.65;;;3.53;;
50549;SDS011;36505;52.512;13.460;2022-08-23T04:47:46;7.75;;;4.07;;
50549;SDS011;36505;52.512;13.460;2022-08-23T04:50:12;12.00;;;4.88;;
50549;SDS011;36505;52.512;13.460;2022-08-23T04:52:37;9.93;;;3.97;;
50549;SDS011;36505;52.512;13.460;2022-08-23T04:55:03;10.27;;;4.25;;
50549;SDS011;36505;52.512;13.460;2022-08-23T04:57:29;8.32;;;3.55;;
50549;SDS011;36505;52.512;13.460;2022-08-23T04:59:55;9.85;;;4.10;;
50549;SDS011;36505;52.512;13.460;2022-08-23T05:02:21;11.38;;;4.68;;
50549;SDS011;36505;52.512;13.460;2022-08-23T05:04:46;7.88;;;3.97;;
50549;SDS011;36505;52.512;13.460;2022-08-23T05:07:12;8.50;;;3.88;;
50549;SDS011;36505;52.512;13.460;2022-08-23T05:09:39;9.55;;;3.33;;
50549;SDS011;36505;52.512;13.460;2022-08-23T05:12:04;8.90;;;3.28;;
50549;SDS011;36505;52.512;13.460;2022-08-23T05:14:30;7.85;;;4.07;;
50549;SDS011;36505;52.512;13.460;2022-08-23T05:16:55;7.57;;;3.55;;
50549;SDS011;36505;52.512;13.460;2022-08-23T05:19:21;10.05;;;3.47;;
50549;SDS011;36505;52.512;13.460;2022-08-23T05:21:46;7.47;;;3.13;;
50549;SDS011;36505;52.512;13.460;2022-08-23T05:24:12;11.70;;;4.10;;
50549;SDS011;36505;52.512;13.460;2022-08-23T05:26:37;9.38;;;3.70;;
50549;SDS011;36505;52.512;13.460;2022-08-23T05:29:03;8.05;;;3.90;;
50549;SDS011;36505;52.512;13.460;2022-08-23T05:31:29;9.88;;;4.05;;
50549;SDS011;36505;52.512;13.460;2022-08-23T05:33:55;9.95;;;3.92;;
50549;SDS011;36505;52.512;13.460;2022-08-23T05:36:20;8.68;;;4.18;;
50549;SDS011;36505;52.512;13.460;2022-08-23T05:38:46;7.55;;;3.47;;
50549;SDS011;36505;52.512;13.460;2022-08-23T05:41:13;12.18;;;3.75;;
50549;SDS011;36505;52.512;13.460;2022-08-23T05:43:40;8.30;;;4.07;;
50549;SDS011;36505;52.512;13.460;2022-08-23T05:46:19;11.35;;;4.60;;
50549;SDS011;36505;52.512;13.460;2022-08-23T05:48:46;7.65;;;3.90;;
50549;SDS011;36505;52.512;13.460;2022-08-23T05:51:28;8.55;;;4.10;;
50549;SDS011;36505;52.512;13.460;2022-08-23T05:53:57;10.85;;;4.03;;
50549;SDS011;36505;52.512;13.460;2022-08-23T05:58:52;9.45;;;3.53;;
50549;SDS011;36505;52.512;13.460;2022-08-23T06:01:20;10.40;;;3.90;;
50549;SDS011;36505;52.512;13.460;2022-08-23T06:03:46;8.43;;;3.45;;
50549;SDS011;36505;52.512;13.460;2022-08-23T06:06:13;8.93;;;4.32;;
50549;SDS011;36505;52.512;13.460;2022-08-23T06:08:39;12.80;;;3.90;;
50549;SDS011;36505;52.512;13.460;2022-08-23T06:11:10;11.95;;;3.60;;
50549;SDS011;36505;52.512;13.460;2022-08-23T06:13:57;11.82;;;3.58;;
50549;SDS011;36505;52.512;13.460;2022-08-23T06:16:26;8.38;;;3.55;;
50549;SDS011;36505;52.512;13.460;2022-08-23T06:18:54;8.20;;;3.75;;
50549;SDS011;36505;52.512;13.460;2022-08-23T06:21:21;7.82;;;3.08;;
50549;SDS011;36505;52.512;13.460;2022-08-23T06:23:47;11.10;;;3.83;;
50549;SDS011;36505;52.512;13.460;2022-08-23T06:26:21;11.45;;;3.53;;
50549;SDS011;36505;52.512;13.460;2022-08-23T06:28:49;8.75;;;3.78;;
50549;SDS011;36505;52.512;13.460;2022-08-23T06:31:17;9.02;;;3.70;;
50549;SDS011;36505;52.512;13.460;2022-08-23T06:34:03;10.82;;;3.90;;
50549;SDS011;36505;52.512;13.460;2022-08-23T06:36:29;7.00;;;3.47;;
50549;SDS011;36505;52.512;13.460;2022-08-23T06:38:54;9.70;;;3.40;;
50549;SDS011;36505;52.512;13.460;2022-08-23T06:41:20;7.63;;;3.63;;
50549;SDS011;36505;52.512;13.460;2022-08-23T06:43:45;10.27;;;3.05;;
50549;SDS011;36505;52.512;13.460;2022-08-23T06:46:12;11.23;;;3.63;;
50549;SDS011;36505;52.512;13.460;2022-08-23T06:48:40;11.45;;;4.30;;
50549;SDS011;36505;52.512;13.460;2022-08-23T06:51:14;9.70;;;2.78;;
50549;SDS011;36505;52.512;13.460;2022-08-23T06:53:47;7.55;;;3.17;;
50549;SDS011;36505;52.512;13.460;2022-08-23T06:56:12;8.50;;;3.58;;
50549;SDS011;36505;52.512;13.460;2022-08-23T06:58:38;9.75;;;4.25;;
50549;SDS011;36505;52.512;13.460;2022-08-23T07:03:53;7.88;;;3.45;;
50549;SDS011;36505;52.512;13.460;2022-08-23T07:06:20;8.80;;;3.10;;
50549;SDS011;36505;52.512;13.460;2022-08-23T07:08:49;5.15;;;2.88;;
50549;SDS011;36505;52.512;13.460;2022-08-23T07:11:15;7.65;;;2.75;;
50549;SDS011;36505;52.512;13.460;2022-08-23T07:13:40;7.10;;;2.80;;
50549;SDS011;36505;52.512;13.460;2022-08-23T07:16:06;5.80;;;2.72;;
50549;SDS011;36505;52.512;13.460;2022-08-23T07:18:32;7.65;;;2.47;;
50549;SDS011;36505;52.512;13.460;2022-08-23T07:20:58;7.20;;;2.45;;
50549;SDS011;36505;52.512;13.460;2022-08-23T07:23:26;8.02;;;2.80;;
50549;SDS011;36505;52.512;13.460;2022-08-23T07:25:57;6.95;;;2.45;;
50549;SDS011;36505;52.512;13.460;2022-08-23T07:28:23;9.27;;;3.30;;
50549;SDS011;36505;52.512;13.460;2022-08-23T07:30:49;6.68;;;2.78;;
50549;SDS011;36505;52.512;13.460;2022-08-23T07:33:14;6.72;;;2.45;;
50549;SDS011;36505;52.512;13.460;2022-08-23T07:35:45;7.53;;;2.65;;
50549;SDS011;36505;52.512;13.460;2022-08-23T07:40:37;10.55;;;2.85;;
50549;SDS011;36505;52.512;13.460;2022-08-23T07:43:02;11.63;;;3.38;;
50549;SDS011;36505;52.512;13.460;2022-08-23T07:45:27;9.57;;;3.22;;
50549;SDS011;36505;52.512;13.460;2022-08-23T07:47:53;4.18;;;2.05;;
50549;SDS011;36505;52.512;13.460;2022-08-23T07:50:18;6.47;;;2.30;;
50549;SDS011;36505;52.512;13.460;2022-08-23T07:52:44;6.72;;;2.33;;
50549;SDS011;36505;52.512;13.460;2022-08-23T07:55:09;7.15;;;2.67;;
50549;SDS011;36505;52.512;13.460;2022-08-23T07:57:34;7.93;;;2.22;;
50549;SDS011;36505;52.512;13.460;2022-08-23T08:00:00;5.18;;;2.40;;
50549;SDS011;36505;52.512;13.460;2022-08-23T08:02:25;4.70;;;2.60;;
50549;SDS011;36505;52.512;13.460;2022-08-23T08:04:51;10.18;;;2.50;;
50549;SDS011;36505;52.512;13.460;2022-08-23T08:07:16;6.75;;;3.13;;
50549;SDS011;36505;52.512;13.460;2022-08-23T08:09:41;8.02;;;2.53;;
50549;SDS011;36505;52.512;13.460;2022-08-23T08:12:07;7.05;;;2.47;;
50549;SDS011;36505;52.512;13.460;2022-08-23T08:14:32;7.13;;;2.97;;
50549;SDS011;36505;52.512;13.460;2022-08-23T08:16:58;5.03;;;2.05;;
50549;SDS011;36505;52.512;13.460;2022-08-23T08:19:24;10.95;;;2.72;;
50549;SDS011;36505;52.512;13.460;2022-08-23T08:21:50;6.22;;;2.25;;
50549;SDS011;36505;52.512;13.460;2022-08-23T08:24:15;11.75;;;2.30;;
50549;SDS011;36505;52.512;13.460;2022-08-23T08:26:42;6.97;;;2.30;;
50549;SDS011;36505;52.512;13.460;2022-08-23T08:29:08;5.82;;;2.72;;
50549;SDS011;36505;52.512;13.460;2022-08-23T08:31:41;7.28;;;2.72;;
50549;SDS011;36505;52.512;13.460;2022-08-23T08:34:08;6.05;;;2.30;;
50549;SDS011;36505;52.512;13.460;2022-08-23T08:39:09;5.47;;;2.13;;
50549;SDS011;36505;52.512;13.460;2022-08-23T08:44:50;4.63;;;2.00;;
50549;SDS011;36505;52.512;13.460;2022-08-23T08:50:19;5.78;;;2.05;;
50549;SDS011;36505;52.512;13.460;2022-08-23T08:52:58;6.53;;;2.22;;
50549;SDS011;36505;52.512;13.460;2022-08-23T08:55:29;5.55;;;2.13;;
50549;SDS011;36505;52.512;13.460;2022-08-23T08:57:58;3.97;;;1.90;;
50549;SDS011;36505;52.512;13.460;2022-08-23T09:00:27;7.68;;;2.17;;
50549;SDS011;36505;52.512;13.460;2022-08-23T09:02:57;5.97;;;2.05;;
50549;SDS011;36505;52.512;13.460;2022-08-23T09:05:25;7.15;;;2.50;;
50549;SDS011;36505;52.512;13.460;2022-08-23T09:10:50;7.97;;;2.60;;
50549;SDS011;36505;52.512;13.460;2022-08-23T09:19:10;4.63;;;2.30;;
50549;SDS011;36505;52.512;13.460;2022-08-23T09:21:44;5.70;;;2.20;;
50549;SDS011;36505;52.512;13.460;2022-08-23T09:24:11;7.53;;;2.67;;
50549;SDS011;36505;52.512;13.460;2022-08-23T09:26:38;6.43;;;2.33;;
50549;SDS011;36505;52.512;13.460;2022-08-23T09:29:12;5.65;;;2.65;;
50549;SDS011;36505;52.512;13.460;2022-08-23T09:31:50;9.55;;;2.50;;
50549;SDS011;36505;52.512;13.460;2022-08-23T09:34:36;4.40;;;2.10;;
50549;SDS011;36505;52.512;13.460;2022-08-23T09:39:51;8.23;;;2.10;;
50549;SDS011;36505;52.512;13.460;2022-08-23T09:42:37;7.28;;;2.60;;
50549;SDS011;36505;52.512;13.460;2022-08-23T09:45:04;5.38;;;2.00;;
50549;SDS011;36505;52.512;13.460;2022-08-23T09:47:50;6.85;;;2.22;;
50549;SDS011;36505;52.512;13.460;2022-08-23T09:50:22;4.75;;;1.77;;
50549;SDS011;36505;52.512;13.460;2022-08-23T09:52:55;4.22;;;1.85;;
50549;SDS011;36505;52.512;13.460;2022-08-23T09:55:29;7.50;;;2.40;;
50549;SDS011;36505;52.512;13.460;2022-08-23T09:58:27;7.60;;;2.10;;
50549;SDS011;36505;52.512;13.460;2022-08-23T10:01:08;6.45;;;2.20;;
50549;SDS011;36505;52.512;13.460;2022-08-23T10:03:35;5.13;;;2.05;;
50549;SDS011;36505;52.512;13.460;2022-08-23T10:06:01;7.25;;;2.30;;
50549;SDS011;36505;52.512;13.460;2022-08-23T10:08:28;7.72;;;3.00;;
50549;SDS011;36505;52.512;13.460;2022-08-23T10:11:20;5.30;;;3.03;;
50549;SDS011;36505;52.512;13.460;2022-08-23T10:14:03;5.95;;;2.70;;
50549;SDS011;36505;52.512;13.460;2022-08-23T10:27:42;7.18;;;3.72;;
50549;SDS011;36505;52.512;13.460;2022-08-23T10:30:45;4.63;;;2.63;;
50549;SDS011;36505;52.512;13.460;2022-08-23T10:36:23;6.10;;;2.42;;
50549;SDS011;36505;52.512;13.460;2022-08-23T10:38:57;8.80;;;2.70;;
50549;SDS011;36505;52.512;13.460;2022-08-23T10:44:21;5.38;;;2.72;;
50549;SDS011;36505;52.512;13.460;2022-08-23T10:49:34;7.97;;;2.50;;
50549;SDS011;36505;52.512;13.460;2022-08-23T10:52:04;4.95;;;2.53;;
50549;SDS011;36505;52.512;13.460;2022-08-23T10:54:38;6.50;;;2.53;;
50549;SDS011;36505;52.512;13.460;2022-08-23T10:57:13;5.93;;;2.65;;
50549;SDS011;36505;52.512;13.460;2022-08-23T10:59:44;5.80;;;2.17;;
50549;SDS011;36505;52.512;13.460;2022-08-23T11:05:03;3.28;;;2.30;;
50549;SDS011;36505;52.512;13.460;2022-08-23T11:07:32;5.00;;;2.13;;
50549;SDS011;36505;52.512;13.460;2022-08-23T11:12:29;4.55;;;2.45;;
50549;SDS011;36505;52.512;13.460;2022-08-23T11:15:04;5.65;;;2.40;;
50549;SDS011;36505;52.512;13.460;2022-08-23T11:17:51;4.95;;;2.15;;
50549;SDS011;36505;52.512;13.460;2022-08-23T11:23:15;3.47;;;2.00;;
50549;SDS011;36505;52.512;13.460;2022-08-23T11:25:41;7.03;;;1.98;;
50549;SDS011;36505;52.512;13.460;2022-08-23T11:31:14;4.93;;;2.30;;
50549;SDS011;36505;52.512;13.460;2022-08-23T11:33:35;3.97;;;2.22;;
50549;SDS011;36505;52.512;13.460;2022-08-23T11:43:45;5.43;;;2.10;;
50549;SDS011;36505;52.512;13.460;2022-08-23T11:51:28;5.60;;;2.03;;
50549;SDS011;36505;52.512;13.460;2022-08-23T11:54:31;5.00;;;2.25;;
50549;SDS011;36505;52.512;13.460;2022-08-23T11:59:52;5.28;;;2.50;;
50549;SDS011;36505;52.512;13.460;2022-08-23T12:18:35;6.05;;;2.00;;
50549;SDS011;36505;52.512;13.460;2022-08-23T12:21:05;5.25;;;1.60;;
50549;SDS011;36505;52.512;13.460;2022-08-23T12:23:43;2.60;;;1.50;;
50549;SDS011;36505;52.512;13.460;2022-08-23T12:26:46;5.47;;;2.38;;
50549;SDS011;36505;52.512;13.460;2022-08-23T12:29:04;7.07;;;1.80;;
50549;SDS011;36505;52.512;13.460;2022-08-23T12:31:38;6.45;;;2.20;;
50549;SDS011;36505;52.512;13.460;2022-08-23T12:36:43;3.05;;;1.60;;
50549;SDS011;36505;52.512;13.460;2022-08-23T12:44:34;3.38;;;1.52;;
50549;SDS011;36505;52.512;13.460;2022-08-23T12:47:10;4.97;;;1.42;;
50549;SDS011;36505;52.512;13.460;2022-08-23T12:49:38;3.63;;;1.73;;
50549;SDS011;36505;52.512;13.460;2022-08-23T12:52:05;4.22;;;1.60;;
50549;SDS011;36505;52.512;13.460;2022-08-23T12:54:39;6.20;;;1.63;;
50549;SDS011;36505;52.512;13.460;2022-08-23T12:59:37;4.20;;;1.48;;
50549;SDS011;36505;52.512;13.460;2022-08-23T13:02:23;4.88;;;1.90;;
50549;SDS011;36505;52.512;13.460;2022-08-23T13:04:52;5.70;;;1.77;;
50549;SDS011;36505;52.512;13.460;2022-08-23T13:07:22;3.50;;;1.38;;
50549;SDS011;36505;52.512;13.460;2022-08-23T13:09:48;6.70;;;1.50;;
50549;SDS011;36505;52.512;13.460;2022-08-23T13:12:15;5.57;;;1.45;;
50549;SDS011;36505;52.512;13.460;2022-08-23T13:14:46;5.70;;;1.40;;
50549;SDS011;36505;52.512;13.460;2022-08-23T13:19:42;5.00;;;1.85;;
50549;SDS011;36505;52.512;13.460;2022-08-23T13:22:09;4.25;;;1.55;;
50549;SDS011;36505;52.512;13.460;2022-08-23T13:24:58;4.35;;;1.10;;
50549;SDS011;36505;52.512;13.460;2022-08-23T13:27:25;5.90;;;1.45;;
50549;SDS011;36505;52.512;13.460;2022-08-23T13:32:24;6.57;;;1.33;;
50549;SDS011;36505;52.512;13.460;2022-08-23T13:34:52;3.88;;;1.58;;
50549;SDS011;36505;52.512;13.460;2022-08-23T13:37:25;3.65;;;1.38;;
50549;SDS011;36505;52.512;13.460;2022-08-23T13:39:55;7.88;;;1.70;;
50549;SDS011;36505;52.512;13.460;2022-08-23T13:42:35;6.15;;;1.42;;
50549;SDS011;36505;52.512;13.460;2022-08-23T13:45:47;5.93;;;1.63;;
50549;SDS011;36505;52.512;13.460;2022-08-23T13:48:12;5.05;;;1.75;;
50549;SDS011;36505;52.512;13.460;2022-08-23T13:50:42;4.43;;;1.90;;
50549;SDS011;36505;52.512;13.460;2022-08-23T13:53:09;6.80;;;2.15;;
50549;SDS011;36505;52.512;13.460;2022-08-23T13:55:38;3.22;;;1.40;;
50549;SDS011;36505;52.512;13.460;2022-08-23T14:01:02;5.97;;;1.98;;
50549;SDS011;36505;52.512;13.460;2022-08-23T14:03:29;5.20;;;1.98;;
50549;SDS011;36505;52.512;13.460;2022-08-23T14:05:58;5.43;;;2.38;;
50549;SDS011;36505;52.512;13.460;2022-08-23T14:08:23;3.67;;;1.63;;
50549;SDS011;36505;52.512;13.460;2022-08-23T14:10:49;8.02;;;1.90;;
50549;SDS011;36505;52.512;13.460;2022-08-23T14:13:15;3.45;;;1.50;;
50549;SDS011;36505;52.512;13.460;2022-08-23T14:15:42;4.38;;;1.70;;
50549;SDS011;36505;52.512;13.460;2022-08-23T14:18:09;4.10;;;1.60;;
50549;SDS011;36505;52.512;13.460;2022-08-23T14:20:36;7.50;;;2.22;;
50549;SDS011;36505;52.512;13.460;2022-08-23T14:23:01;3.72;;;1.70;;
50549;SDS011;36505;52.512;13.460;2022-08-23T14:25:27;12.30;;;2.00;;
50549;SDS011;36505;52.512;13.460;2022-08-23T14:27:52;5.45;;;2.38;;
50549;SDS011;36505;52.512;13.460;2022-08-23T14:30:26;5.65;;;1.70;;
50549;SDS011;36505;52.512;13.460;2022-08-23T14:32:57;5.55;;;1.83;;
50549;SDS011;36505;52.512;13.460;2022-08-23T14:35:23;4.18;;;2.17;;
50549;SDS011;36505;52.512;13.460;2022-08-23T14:37:49;5.32;;;1.90;;
50549;SDS011;36505;52.512;13.460;2022-08-23T14:40:15;10.85;;;2.20;;
50549;SDS011;36505;52.512;13.460;2022-08-23T14:42:41;7.15;;;2.10;;
50549;SDS011;36505;52.512;13.460;2022-08-23T14:45:07;5.00;;;2.17;;
50549;SDS011;36505;52.512;13.460;2022-08-23T14:47:33;5.93;;;2.28;;
50549;SDS011;36505;52.512;13.460;2022-08-23T14:49:59;11.13;;;2.80;;
50549;SDS011;36505;52.512;13.460;2022-08-23T14:52:25;7.45;;;2.50;;
50549;SDS011;36505;52.512;13.460;2022-08-23T14:54:51;3.83;;;1.90;;
50549;SDS011;36505;52.512;13.460;2022-08-23T14:57:16;5.88;;;2.83;;
50549;SDS011;36505;52.512;13.460;2022-08-23T14:59:42;5.00;;;2.10;;
50549;SDS011;36505;52.512;13.460;2022-08-23T15:02:08;3.92;;;2.17;;
50549;SDS011;36505;52.512;13.460;2022-08-23T15:04:35;7.20;;;2.80;;
50549;SDS011;36505;52.512;13.460;2022-08-23T15:07:03;4.10;;;2.08;;
50549;SDS011;36505;52.512;13.460;2022-08-23T15:09:29;3.33;;;1.80;;
50549;SDS011;36505;52.512;13.460;2022-08-23T15:11:55;13.10;;;1.98;;
50549;SDS011;36505;52.512;13.460;2022-08-23T15:14:20;5.50;;;2.75;;
50549;SDS011;36505;52.512;13.460;2022-08-23T15:16:46;5.20;;;2.13;;
50549;SDS011;36505;52.512;13.460;2022-08-23T15:19:12;5.43;;;2.00;;
50549;SDS011;36505;52.512;13.460;2022-08-23T15:21:37;5.15;;;2.75;;
50549;SDS011;36505;52.512;13.460;2022-08-23T15:24:03;9.45;;;2.30;;
50549;SDS011;36505;52.512;13.460;2022-08-23T15:26:29;4.28;;;2.50;;
50549;SDS011;36505;52.512;13.460;2022-08-23T15:28:56;5.97;;;2.67;;
50549;SDS011;36505;52.512;13.460;2022-08-23T15:31:22;7.68;;;1.98;;
50549;SDS011;36505;52.512;13.460;2022-08-23T15:33:48;3.65;;;1.92;;
50549;SDS011;36505;52.512;13.460;2022-08-23T15:36:13;4.78;;;1.98;;
50549;SDS011;36505;52.512;13.460;2022-08-23T15:38:40;6.45;;;2.58;;
50549;SDS011;36505;52.512;13.460;2022-08-23T15:41:07;5.90;;;2.20;;
50549;SDS011;36505;52.512;13.460;2022-08-23T15:43:33;9.30;;;3.75;;
50549;SDS011;36505;52.512;13.460;2022-08-23T15:46:07;6.10;;;2.05;;
50549;SDS011;36505;52.512;13.460;2022-08-23T15:48:36;5.03;;;1.45;;
50549;SDS011;36505;52.512;13.460;2022-08-23T15:51:07;3.35;;;1.98;;
50549;SDS011;36505;52.512;13.460;2022-08-23T15:53:35;3.08;;;1.65;;
50549;SDS011;36505;52.512;13.460;2022-08-23T15:56:01;3.00;;;1.50;;
50549;SDS011;36505;52.512;13.460;2022-08-23T15:58:26;4.97;;;2.00;;
50549;SDS011;36505;52.512;13.460;2022-08-23T16:00:52;6.03;;;1.98;;
50549;SDS011;36505;52.512;13.460;2022-08-23T16:03:19;4.93;;;1.58;;
50549;SDS011;36505;52.512;13.460;2022-08-23T16:05:46;3.88;;;1.90;;
50549;SDS011;36505;52.512;13.460;2022-08-23T16:08:17;4.57;;;1.90;;
50549;SDS011;36505;52.512;13.460;2022-08-23T16:10:49;7.40;;;1.85;;
50549;SDS011;36505;52.512;13.460;2022-08-23T16:13:15;5.88;;;1.88;;
50549;SDS011;36505;52.512;13.460;2022-08-23T16:15:40;4.07;;;1.60;;
50549;SDS011;36505;52.512;13.460;2022-08-23T16:18:06;4.47;;;1.90;;
50549;SDS011;36505;52.512;13.460;2022-08-23T16:20:31;8.50;;;2.03;;
50549;SDS011;36505;52.512;13.460;2022-08-23T16:22:57;4.68;;;1.80;;
50549;SDS011;36505;52.512;13.460;2022-08-23T16:25:22;5.07;;;2.20;;
50549;SDS011;36505;52.512;13.460;2022-08-23T16:27:48;6.05;;;1.90;;
50549;SDS011;36505;52.512;13.460;2022-08-23T16:30:14;4.18;;;1.80;;
50549;SDS011;36505;52.512;13.460;2022-08-23T16:32:40;7.38;;;2.13;;